sensor_id;sensor_type;location;lat;lon;timestamp;P1;durP1;ratioP1;P2;durP2;ratioP2
7074;SDS011;3578;51.568;6.932;2023-03-08T00:01:08;20.57;;;18.37;;
7074;SDS011;3578;51.568;6.932;2023-03-08T00:03:38;20.73;;;18.30;;
7074;SDS011;3578;51.568;6.932;2023-03-08T00:06:07;21.63;;;19.30;;
7074;SDS011;3578;51.568;6.932;2023-03-08T00:08:41;23.43;;;18.50;;
7074;SDS011;3578;51.568;6.932;2023-03-08T00:11:12;23.33;;;20.33;;
7074;SDS011;3578;51.568;6.932;2023-03-08T00:13:42;29.07;;;21.20;;
7074;SDS011;3578;51.568;6.932;2023-03-08T00:16:10;24.20;;;21.57;;
7074;SDS011;3578;51.568;6.932;2023-03-08T00:18:38;25.40;;;21.30;;
7074;SDS011;3578;51.568;6.932;2023-03-08T00:21:06;28.87;;;22.40;;
7074;SDS011;3578;51.568;6.932;2023-03-08T00:23:37;26.00;;;22.30;;
7074;SDS011;3578;51.568;6.932;2023-03-08T00:26:05;26.83;;;22.60;;
7074;SDS011;3578;51.568;6.932;2023-03-08T00:28:33;26.40;;;22.40;;
7074;SDS011;3578;51.568;6.932;2023-03-08T00:31:02;31.93;;;23.67;;
7074;SDS011;3578;51.568;6.932;2023-03-08T00:33:32;36.00;;;26.67;;
7074;SDS011;3578;51.568;6.932;2023-03-08T00:36:01;35.83;;;25.60;;
7074;SDS011;3578;51.568;6.932;2023-03-08T00:38:32;34.00;;;24.70;;
7074;SDS011;3578;51.568;6.932;2023-03-08T00:41:00;34.93;;;24.63;;
7074;SDS011;3578;51.568;6.932;2023-03-08T00:43:28;34.00;;;23.77;;
7074;SDS011;3578;51.568;6.932;2023-03-08T00:45:56;39.17;;;26.43;;
7074;SDS011;3578;51.568;6.932;2023-03-08T00:48:25;36.93;;;26.10;;
7074;SDS011;3578;51.568;6.932;2023-03-08T00:50:53;35.87;;;26.20;;
7074;SDS011;3578;51.568;6.932;2023-03-08T00:53:20;34.83;;;25.77;;
7074;SDS011;3578;51.568;6.932;2023-03-08T00:55:48;35.43;;;24.83;;
7074;SDS011;3578;51.568;6.932;2023-03-08T00:58:16;35.27;;;25.73;;
7074;SDS011;3578;51.568;6.932;2023-03-08T01:00:44;33.53;;;23.63;;
7074;SDS011;3578;51.568;6.932;2023-03-08T01:03:12;31.07;;;24.10;;
7074;SDS011;3578;51.568;6.932;2023-03-08T01:05:42;33.10;;;23.20;;
7074;SDS011;3578;51.568;6.932;2023-03-08T01:08:11;30.77;;;23.63;;
7074;SDS011;3578;51.568;6.932;2023-03-08T01:10:45;32.37;;;25.10;;
7074;SDS011;3578;51.568;6.932;2023-03-08T01:13:13;29.20;;;23.20;;
7074;SDS011;3578;51.568;6.932;2023-03-08T01:15:41;35.60;;;25.20;;
7074;SDS011;3578;51.568;6.932;2023-03-08T01:18:08;38.00;;;25.67;;
7074;SDS011;3578;51.568;6.932;2023-03-08T01:20:35;32.57;;;23.60;;
7074;SDS011;3578;51.568;6.932;2023-03-08T01:23:04;33.47;;;25.40;;
7074;SDS011;3578;51.568;6.932;2023-03-08T01:25:32;32.83;;;23.57;;
7074;SDS011;3578;51.568;6.932;2023-03-08T01:27:59;31.67;;;22.20;;
7074;SDS011;3578;51.568;6.932;2023-03-08T01:30:26;31.17;;;21.90;;
7074;SDS011;3578;51.568;6.932;2023-03-08T01:32:54;26.60;;;21.83;;
7074;SDS011;3578;51.568;6.932;2023-03-08T01:35:21;27.50;;;23.43;;
7074;SDS011;3578;51.568;6.932;2023-03-08T01:37:49;32.53;;;23.97;;
7074;SDS011;3578;51.568;6.932;2023-03-08T01:40:20;28.00;;;20.33;;
7074;SDS011;3578;51.568;6.932;2023-03-08T01:42:48;26.90;;;21.43;;
7074;SDS011;3578;51.568;6.932;2023-03-08T01:48:36;28.87;;;21.60;;
7074;SDS011;3578;51.568;6.932;2023-03-08T01:51:07;34.47;;;22.87;;
7074;SDS011;3578;51.568;6.932;2023-03-08T01:53:40;31.83;;;23.00;;
7074;SDS011;3578;51.568;6.932;2023-03-08T01:56:10;34.43;;;24.93;;
7074;SDS011;3578;51.568;6.932;2023-03-08T01:58:40;33.37;;;24.87;;
7074;SDS011;3578;51.568;6.932;2023-03-08T02:01:11;30.47;;;23.13;;
7074;SDS011;3578;51.568;6.932;2023-03-08T02:03:38;34.20;;;24.47;;
7074;SDS011;3578;51.568;6.932;2023-03-08T02:06:05;36.53;;;25.70;;
7074;SDS011;3578;51.568;6.932;2023-03-08T02:08:33;36.60;;;25.50;;
7074;SDS011;3578;51.568;6.932;2023-03-08T02:11:00;35.70;;;25.30;;
7074;SDS011;3578;51.568;6.932;2023-03-08T02:13:29;33.17;;;24.40;;
7074;SDS011;3578;51.568;6.932;2023-03-08T02:15:56;31.83;;;23.97;;
7074;SDS011;3578;51.568;6.932;2023-03-08T02:18:25;39.37;;;28.00;;
7074;SDS011;3578;51.568;6.932;2023-03-08T02:20:52;39.70;;;26.17;;
7074;SDS011;3578;51.568;6.932;2023-03-08T02:23:21;36.87;;;26.83;;
7074;SDS011;3578;51.568;6.932;2023-03-08T02:25:51;41.27;;;28.37;;
7074;SDS011;3578;51.568;6.932;2023-03-08T02:28:22;43.10;;;27.60;;
7074;SDS011;3578;51.568;6.932;2023-03-08T02:30:51;37.30;;;27.73;;
7074;SDS011;3578;51.568;6.932;2023-03-08T02:33:19;40.37;;;30.27;;
7074;SDS011;3578;51.568;6.932;2023-03-08T02:35:46;38.83;;;27.80;;
7074;SDS011;3578;51.568;6.932;2023-03-08T02:38:14;35.83;;;27.67;;
7074;SDS011;3578;51.568;6.932;2023-03-08T02:40:45;38.27;;;26.80;;
7074;SDS011;3578;51.568;6.932;2023-03-08T02:43:15;37.00;;;26.53;;
7074;SDS011;3578;51.568;6.932;2023-03-08T02:45:43;34.97;;;25.67;;
7074;SDS011;3578;51.568;6.932;2023-03-08T02:48:10;39.60;;;27.77;;
7074;SDS011;3578;51.568;6.932;2023-03-08T02:50:37;37.10;;;24.40;;
7074;SDS011;3578;51.568;6.932;2023-03-08T02:53:04;33.73;;;24.03;;
7074;SDS011;3578;51.568;6.932;2023-03-08T02:55:32;36.30;;;25.80;;
7074;SDS011;3578;51.568;6.932;2023-03-08T02:58:01;30.63;;;25.10;;
7074;SDS011;3578;51.568;6.932;2023-03-08T03:00:29;31.40;;;23.63;;
7074;SDS011;3578;51.568;6.932;2023-03-08T03:02:56;31.97;;;24.33;;
7074;SDS011;3578;51.568;6.932;2023-03-08T03:05:23;33.93;;;24.90;;
7074;SDS011;3578;51.568;6.932;2023-03-08T03:07:50;35.87;;;25.87;;
7074;SDS011;3578;51.568;6.932;2023-03-08T03:10:19;35.20;;;25.97;;
7074;SDS011;3578;51.568;6.932;2023-03-08T03:12:46;34.93;;;26.43;;
7074;SDS011;3578;51.568;6.932;2023-03-08T03:15:14;31.03;;;25.57;;
7074;SDS011;3578;51.568;6.932;2023-03-08T03:17:41;32.33;;;24.67;;
7074;SDS011;3578;51.568;6.932;2023-03-08T03:20:09;30.70;;;23.77;;
7074;SDS011;3578;51.568;6.932;2023-03-08T03:22:37;31.90;;;24.10;;
7074;SDS011;3578;51.568;6.932;2023-03-08T03:25:05;33.60;;;24.73;;
7074;SDS011;3578;51.568;6.932;2023-03-08T03:27:33;31.63;;;23.73;;
7074;SDS011;3578;51.568;6.932;2023-03-08T03:30:00;31.40;;;25.20;;
7074;SDS011;3578;51.568;6.932;2023-03-08T03:32:28;31.57;;;24.40;;
7074;SDS011;3578;51.568;6.932;2023-03-08T03:34:55;28.17;;;22.00;;
7074;SDS011;3578;51.568;6.932;2023-03-08T03:37:22;27.77;;;22.00;;
7074;SDS011;3578;51.568;6.932;2023-03-08T03:39:49;31.50;;;23.27;;
7074;SDS011;3578;51.568;6.932;2023-03-08T03:42:16;29.30;;;22.77;;
7074;SDS011;3578;51.568;6.932;2023-03-08T03:44:43;25.10;;;20.87;;
7074;SDS011;3578;51.568;6.932;2023-03-08T03:47:11;27.27;;;22.03;;
7074;SDS011;3578;51.568;6.932;2023-03-08T03:49:39;24.47;;;19.63;;
7074;SDS011;3578;51.568;6.932;2023-03-08T03:52:06;26.17;;;21.53;;
7074;SDS011;3578;51.568;6.932;2023-03-08T03:54:33;26.30;;;19.50;;
7074;SDS011;3578;51.568;6.932;2023-03-08T03:57:00;25.20;;;20.63;;
7074;SDS011;3578;51.568;6.932;2023-03-08T03:59:27;22.93;;;20.27;;
7074;SDS011;3578;51.568;6.932;2023-03-08T04:01:54;24.20;;;19.50;;
7074;SDS011;3578;51.568;6.932;2023-03-08T04:04:21;25.47;;;20.27;;
7074;SDS011;3578;51.568;6.932;2023-03-08T04:06:50;21.63;;;19.23;;
7074;SDS011;3578;51.568;6.932;2023-03-08T04:09:17;24.63;;;17.93;;
7074;SDS011;3578;51.568;6.932;2023-03-08T04:11:44;22.70;;;18.03;;
7074;SDS011;3578;51.568;6.932;2023-03-08T04:14:11;27.93;;;18.43;;
7074;SDS011;3578;51.568;6.932;2023-03-08T04:16:39;26.20;;;20.33;;
7074;SDS011;3578;51.568;6.932;2023-03-08T04:19:07;23.57;;;18.70;;
7074;SDS011;3578;51.568;6.932;2023-03-08T04:21:37;22.70;;;18.50;;
7074;SDS011;3578;51.568;6.932;2023-03-08T04:24:06;26.20;;;20.37;;
7074;SDS011;3578;51.568;6.932;2023-03-08T04:26:34;25.37;;;19.47;;
7074;SDS011;3578;51.568;6.932;2023-03-08T04:29:02;25.87;;;19.97;;
7074;SDS011;3578;51.568;6.932;2023-03-08T04:31:31;26.27;;;20.20;;
7074;SDS011;3578;51.568;6.932;2023-03-08T04:34:00;20.43;;;18.13;;
7074;SDS011;3578;51.568;6.932;2023-03-08T04:36:28;24.70;;;18.90;;
7074;SDS011;3578;51.568;6.932;2023-03-08T04:38:55;23.90;;;18.13;;
7074;SDS011;3578;51.568;6.932;2023-03-08T04:41:24;24.23;;;18.93;;
7074;SDS011;3578;51.568;6.932;2023-03-08T04:43:52;21.43;;;18.43;;
7074;SDS011;3578;51.568;6.932;2023-03-08T04:46:21;23.60;;;17.83;;
7074;SDS011;3578;51.568;6.932;2023-03-08T04:48:50;22.13;;;19.43;;
7074;SDS011;3578;51.568;6.932;2023-03-08T04:51:20;24.00;;;19.77;;
7074;SDS011;3578;51.568;6.932;2023-03-08T04:53:49;25.23;;;19.03;;
7074;SDS011;3578;51.568;6.932;2023-03-08T04:56:17;23.70;;;18.50;;
7074;SDS011;3578;51.568;6.932;2023-03-08T04:58:46;24.47;;;19.97;;
7074;SDS011;3578;51.568;6.932;2023-03-08T05:01:14;28.10;;;20.40;;
7074;SDS011;3578;51.568;6.932;2023-03-08T05:03:43;25.30;;;19.53;;
7074;SDS011;3578;51.568;6.932;2023-03-08T05:06:13;25.57;;;18.37;;
7074;SDS011;3578;51.568;6.932;2023-03-08T05:08:41;27.63;;;19.47;;
7074;SDS011;3578;51.568;6.932;2023-03-08T05:11:08;21.63;;;18.70;;
7074;SDS011;3578;51.568;6.932;2023-03-08T05:13:41;22.33;;;18.93;;
7074;SDS011;3578;51.568;6.932;2023-03-08T05:16:09;23.67;;;19.20;;
7074;SDS011;3578;51.568;6.932;2023-03-08T05:18:36;23.33;;;19.50;;
7074;SDS011;3578;51.568;6.932;2023-03-08T05:21:05;27.17;;;20.90;;
7074;SDS011;3578;51.568;6.932;2023-03-08T05:23:35;24.80;;;19.53;;
7074;SDS011;3578;51.568;6.932;2023-03-08T05:26:02;24.53;;;19.97;;
7074;SDS011;3578;51.568;6.932;2023-03-08T05:28:32;24.17;;;19.10;;
7074;SDS011;3578;51.568;6.932;2023-03-08T05:31:02;27.20;;;21.03;;
7074;SDS011;3578;51.568;6.932;2023-03-08T05:33:32;27.40;;;21.33;;
7074;SDS011;3578;51.568;6.932;2023-03-08T05:36:00;25.73;;;19.80;;
7074;SDS011;3578;51.568;6.932;2023-03-08T05:38:28;22.70;;;18.93;;
7074;SDS011;3578;51.568;6.932;2023-03-08T05:40:58;25.27;;;18.67;;
7074;SDS011;3578;51.568;6.932;2023-03-08T05:43:26;23.80;;;19.00;;
7074;SDS011;3578;51.568;6.932;2023-03-08T05:45:54;24.47;;;19.43;;
7074;SDS011;3578;51.568;6.932;2023-03-08T05:48:23;25.13;;;19.33;;
7074;SDS011;3578;51.568;6.932;2023-03-08T05:50:52;25.13;;;20.10;;
7074;SDS011;3578;51.568;6.932;2023-03-08T05:53:19;26.00;;;19.87;;
7074;SDS011;3578;51.568;6.932;2023-03-08T05:55:47;24.87;;;20.67;;
7074;SDS011;3578;51.568;6.932;2023-03-08T05:58:15;24.53;;;19.90;;
7074;SDS011;3578;51.568;6.932;2023-03-08T06:00:42;25.90;;;21.03;;
7074;SDS011;3578;51.568;6.932;2023-03-08T06:03:09;29.37;;;21.03;;
7074;SDS011;3578;51.568;6.932;2023-03-08T06:05:36;26.97;;;20.60;;
7074;SDS011;3578;51.568;6.932;2023-03-08T06:08:05;32.70;;;21.93;;
7074;SDS011;3578;51.568;6.932;2023-03-08T06:10:32;27.00;;;21.20;;
7074;SDS011;3578;51.568;6.932;2023-03-08T06:12:59;31.27;;;22.23;;
7074;SDS011;3578;51.568;6.932;2023-03-08T06:15:27;30.23;;;23.27;;
7074;SDS011;3578;51.568;6.932;2023-03-08T06:17:54;33.23;;;22.60;;
7074;SDS011;3578;51.568;6.932;2023-03-08T06:20:21;27.80;;;21.90;;
7074;SDS011;3578;51.568;6.932;2023-03-08T06:22:48;30.23;;;21.30;;
7074;SDS011;3578;51.568;6.932;2023-03-08T06:25:16;24.43;;;20.93;;
7074;SDS011;3578;51.568;6.932;2023-03-08T06:27:43;26.00;;;17.50;;
7074;SDS011;3578;51.568;6.932;2023-03-08T06:30:10;21.33;;;17.03;;
7074;SDS011;3578;51.568;6.932;2023-03-08T06:32:38;21.10;;;16.93;;
7074;SDS011;3578;51.568;6.932;2023-03-08T06:35:07;21.10;;;17.40;;
7074;SDS011;3578;51.568;6.932;2023-03-08T06:37:34;19.37;;;15.60;;
7074;SDS011;3578;51.568;6.932;2023-03-08T06:40:02;21.57;;;16.27;;
7074;SDS011;3578;51.568;6.932;2023-03-08T06:42:34;20.27;;;17.53;;
7074;SDS011;3578;51.568;6.932;2023-03-08T06:45:02;20.17;;;15.47;;
7074;SDS011;3578;51.568;6.932;2023-03-08T06:47:30;19.57;;;14.63;;
7074;SDS011;3578;51.568;6.932;2023-03-08T06:49:57;19.60;;;15.53;;
7074;SDS011;3578;51.568;6.932;2023-03-08T06:52:24;31.57;;;16.33;;
7074;SDS011;3578;51.568;6.932;2023-03-08T06:54:51;22.10;;;17.23;;
7074;SDS011;3578;51.568;6.932;2023-03-08T06:57:18;16.57;;;14.00;;
7074;SDS011;3578;51.568;6.932;2023-03-08T06:59:46;20.50;;;15.40;;
7074;SDS011;3578;51.568;6.932;2023-03-08T07:02:13;17.93;;;14.47;;
7074;SDS011;3578;51.568;6.932;2023-03-08T07:04:40;17.30;;;12.90;;
7074;SDS011;3578;51.568;6.932;2023-03-08T07:07:07;14.80;;;13.20;;
7074;SDS011;3578;51.568;6.932;2023-03-08T07:09:34;14.97;;;12.30;;
7074;SDS011;3578;51.568;6.932;2023-03-08T07:12:01;17.70;;;11.70;;
7074;SDS011;3578;51.568;6.932;2023-03-08T07:14:29;13.43;;;10.83;;
7074;SDS011;3578;51.568;6.932;2023-03-08T07:16:58;11.60;;;9.60;;
7074;SDS011;3578;51.568;6.932;2023-03-08T07:19:25;11.60;;;10.23;;
7074;SDS011;3578;51.568;6.932;2023-03-08T07:21:51;11.73;;;9.40;;
7074;SDS011;3578;51.568;6.932;2023-03-08T07:24:18;12.13;;;10.10;;
7074;SDS011;3578;51.568;6.932;2023-03-08T07:26:45;13.97;;;9.43;;
7074;SDS011;3578;51.568;6.932;2023-03-08T07:29:12;10.23;;;9.00;;
7074;SDS011;3578;51.568;6.932;2023-03-08T07:31:39;11.77;;;9.40;;
7074;SDS011;3578;51.568;6.932;2023-03-08T07:34:08;9.27;;;8.33;;
7074;SDS011;3578;51.568;6.932;2023-03-08T07:36:35;13.00;;;10.03;;
7074;SDS011;3578;51.568;6.932;2023-03-08T07:39:03;11.60;;;9.30;;
7074;SDS011;3578;51.568;6.932;2023-03-08T07:41:30;13.67;;;9.63;;
7074;SDS011;3578;51.568;6.932;2023-03-08T07:43:58;12.80;;;9.47;;
7074;SDS011;3578;51.568;6.932;2023-03-08T07:46:26;9.87;;;8.30;;
7074;SDS011;3578;51.568;6.932;2023-03-08T07:48:53;12.43;;;8.47;;
7074;SDS011;3578;51.568;6.932;2023-03-08T07:51:21;15.63;;;8.37;;
7074;SDS011;3578;51.568;6.932;2023-03-08T07:53:50;10.37;;;8.03;;
7074;SDS011;3578;51.568;6.932;2023-03-08T07:56:18;11.10;;;8.80;;
7074;SDS011;3578;51.568;6.932;2023-03-08T07:58:45;15.03;;;8.83;;
7074;SDS011;3578;51.568;6.932;2023-03-08T08:01:12;9.97;;;8.33;;
7074;SDS011;3578;51.568;6.932;2023-03-08T08:03:39;7.57;;;6.77;;
7074;SDS011;3578;51.568;6.932;2023-03-08T08:06:07;9.97;;;7.30;;
7074;SDS011;3578;51.568;6.932;2023-03-08T08:08:36;6.37;;;5.50;;
7074;SDS011;3578;51.568;6.932;2023-03-08T08:11:08;6.83;;;6.17;;
7074;SDS011;3578;51.568;6.932;2023-03-08T08:13:37;7.90;;;6.27;;
7074;SDS011;3578;51.568;6.932;2023-03-08T08:16:04;10.03;;;7.40;;
7074;SDS011;3578;51.568;6.932;2023-03-08T08:18:32;7.07;;;6.37;;
7074;SDS011;3578;51.568;6.932;2023-03-08T08:21:00;8.50;;;6.40;;
7074;SDS011;3578;51.568;6.932;2023-03-08T08:23:28;7.40;;;6.30;;
7074;SDS011;3578;51.568;6.932;2023-03-08T08:25:57;7.20;;;6.30;;
7074;SDS011;3578;51.568;6.932;2023-03-08T08:28:25;6.93;;;6.23;;
7074;SDS011;3578;51.568;6.932;2023-03-08T08:30:56;6.80;;;6.03;;
7074;SDS011;3578;51.568;6.932;2023-03-08T08:33:26;6.03;;;5.53;;
7074;SDS011;3578;51.568;6.932;2023-03-08T08:35:53;10.20;;;6.30;;
7074;SDS011;3578;51.568;6.932;2023-03-08T08:38:20;9.00;;;6.33;;
7074;SDS011;3578;51.568;6.932;2023-03-08T08:40:47;7.43;;;6.63;;
7074;SDS011;3578;51.568;6.932;2023-03-08T08:43:16;11.53;;;6.30;;
7074;SDS011;3578;51.568;6.932;2023-03-08T08:45:43;6.00;;;5.40;;
7074;SDS011;3578;51.568;6.932;2023-03-08T08:48:11;13.83;;;7.17;;
7074;SDS011;3578;51.568;6.932;2023-03-08T08:50:39;7.30;;;6.60;;
7074;SDS011;3578;51.568;6.932;2023-03-08T08:53:07;6.90;;;6.20;;
7074;SDS011;3578;51.568;6.932;2023-03-08T08:55:36;7.27;;;6.23;;
7074;SDS011;3578;51.568;6.932;2023-03-08T08:58:04;6.83;;;6.10;;
7074;SDS011;3578;51.568;6.932;2023-03-08T09:00:33;6.97;;;6.40;;
7074;SDS011;3578;51.568;6.932;2023-03-08T09:03:00;8.10;;;6.90;;
7074;SDS011;3578;51.568;6.932;2023-03-08T09:05:28;8.10;;;5.87;;
7074;SDS011;3578;51.568;6.932;2023-03-08T09:07:56;6.17;;;5.77;;
7074;SDS011;3578;51.568;6.932;2023-03-08T09:10:26;5.97;;;5.37;;
7074;SDS011;3578;51.568;6.932;2023-03-08T09:12:56;13.63;;;4.83;;
7074;SDS011;3578;51.568;6.932;2023-03-08T09:15:24;4.27;;;3.87;;
7074;SDS011;3578;51.568;6.932;2023-03-08T09:17:53;6.10;;;3.77;;
7074;SDS011;3578;51.568;6.932;2023-03-08T09:20:20;9.93;;;4.13;;
7074;SDS011;3578;51.568;6.932;2023-03-08T09:22:48;4.00;;;3.70;;
7074;SDS011;3578;51.568;6.932;2023-03-08T09:25:15;4.50;;;4.03;;
7074;SDS011;3578;51.568;6.932;2023-03-08T09:27:43;4.67;;;4.27;;
7074;SDS011;3578;51.568;6.932;2023-03-08T09:30:11;6.10;;;4.50;;
7074;SDS011;3578;51.568;6.932;2023-03-08T09:32:40;4.97;;;4.47;;
7074;SDS011;3578;51.568;6.932;2023-03-08T09:35:08;11.27;;;3.90;;
7074;SDS011;3578;51.568;6.932;2023-03-08T09:37:35;9.40;;;4.60;;
7074;SDS011;3578;51.568;6.932;2023-03-08T09:40:02;5.90;;;5.30;;
7074;SDS011;3578;51.568;6.932;2023-03-08T09:42:33;5.60;;;5.20;;
7074;SDS011;3578;51.568;6.932;2023-03-08T09:45:05;4.70;;;4.40;;
7074;SDS011;3578;51.568;6.932;2023-03-08T09:47:46;4.10;;;3.90;;
7074;SDS011;3578;51.568;6.932;2023-03-08T09:50:18;4.00;;;3.70;;
7074;SDS011;3578;51.568;6.932;2023-03-08T09:52:57;5.43;;;4.03;;
7074;SDS011;3578;51.568;6.932;2023-03-08T09:55:31;3.80;;;3.60;;
7074;SDS011;3578;51.568;6.932;2023-03-08T09:58:04;3.60;;;3.30;;
7074;SDS011;3578;51.568;6.932;2023-03-08T10:00:41;3.57;;;3.20;;
7074;SDS011;3578;51.568;6.932;2023-03-08T10:03:25;3.17;;;3.07;;
7074;SDS011;3578;51.568;6.932;2023-03-08T10:06:21;3.40;;;3.20;;
7074;SDS011;3578;51.568;6.932;2023-03-08T10:08:58;3.23;;;3.13;;
7074;SDS011;3578;51.568;6.932;2023-03-08T10:11:35;3.93;;;3.60;;
7074;SDS011;3578;51.568;6.932;2023-03-08T10:14:12;3.53;;;3.33;;
7074;SDS011;3578;51.568;6.932;2023-03-08T10:16:44;5.27;;;4.07;;
7074;SDS011;3578;51.568;6.932;2023-03-08T10:19:19;5.33;;;4.93;;
7074;SDS011;3578;51.568;6.932;2023-03-08T10:21:53;4.83;;;4.37;;
7074;SDS011;3578;51.568;6.932;2023-03-08T10:24:23;4.63;;;4.27;;
7074;SDS011;3578;51.568;6.932;2023-03-08T10:26:59;5.77;;;5.37;;
7074;SDS011;3578;51.568;6.932;2023-03-08T10:29:35;6.23;;;5.57;;
7074;SDS011;3578;51.568;6.932;2023-03-08T10:32:02;6.70;;;6.17;;
7074;SDS011;3578;51.568;6.932;2023-03-08T10:34:31;7.33;;;6.80;;
7074;SDS011;3578;51.568;6.932;2023-03-08T10:37:01;8.93;;;8.13;;
7074;SDS011;3578;51.568;6.932;2023-03-08T10:39:31;9.03;;;8.23;;
7074;SDS011;3578;51.568;6.932;2023-03-08T10:42:01;9.43;;;8.43;;
7074;SDS011;3578;51.568;6.932;2023-03-08T10:44:40;12.73;;;11.50;;
7074;SDS011;3578;51.568;6.932;2023-03-08T10:47:17;14.90;;;12.83;;
7074;SDS011;3578;51.568;6.932;2023-03-08T10:49:47;18.03;;;13.87;;
7074;SDS011;3578;51.568;6.932;2023-03-08T10:52:22;15.50;;;12.60;;
7074;SDS011;3578;51.568;6.932;2023-03-08T10:54:59;13.87;;;12.57;;
7074;SDS011;3578;51.568;6.932;2023-03-08T10:57:28;13.23;;;11.93;;
7074;SDS011;3578;51.568;6.932;2023-03-08T10:59:56;13.93;;;12.47;;
7074;SDS011;3578;51.568;6.932;2023-03-08T11:02:35;13.47;;;12.13;;
7074;SDS011;3578;51.568;6.932;2023-03-08T11:05:15;13.20;;;11.90;;
7074;SDS011;3578;51.568;6.932;2023-03-08T11:07:50;10.80;;;9.73;;
7074;SDS011;3578;51.568;6.932;2023-03-08T11:10:21;9.10;;;8.40;;
7074;SDS011;3578;51.568;6.932;2023-03-08T11:12:59;7.47;;;6.77;;
7074;SDS011;3578;51.568;6.932;2023-03-08T11:15:28;6.63;;;6.20;;
7074;SDS011;3578;51.568;6.932;2023-03-08T11:18:01;5.73;;;5.40;;
7074;SDS011;3578;51.568;6.932;2023-03-08T11:20:33;5.10;;;4.80;;
7074;SDS011;3578;51.568;6.932;2023-03-08T11:23:12;5.07;;;4.77;;
7074;SDS011;3578;51.568;6.932;2023-03-08T11:25:47;5.43;;;5.03;;
7074;SDS011;3578;51.568;6.932;2023-03-08T11:28:31;4.40;;;4.10;;
7074;SDS011;3578;51.568;6.932;2023-03-08T11:31:12;3.90;;;3.60;;
7074;SDS011;3578;51.568;6.932;2023-03-08T11:33:52;3.27;;;3.17;;
7074;SDS011;3578;51.568;6.932;2023-03-08T11:36:45;3.67;;;3.47;;
7074;SDS011;3578;51.568;6.932;2023-03-08T11:39:24;3.70;;;3.50;;
7074;SDS011;3578;51.568;6.932;2023-03-08T11:41:56;4.30;;;4.00;;
7074;SDS011;3578;51.568;6.932;2023-03-08T11:47:41;4.90;;;3.80;;
7074;SDS011;3578;51.568;6.932;2023-03-08T11:50:46;7.80;;;4.67;;
7074;SDS011;3578;51.568;6.932;2023-03-08T11:53:21;4.87;;;4.57;;
7074;SDS011;3578;51.568;6.932;2023-03-08T11:56:07;4.50;;;4.20;;
7074;SDS011;3578;51.568;6.932;2023-03-08T11:58:52;4.37;;;4.00;;
7074;SDS011;3578;51.568;6.932;2023-03-08T12:01:28;4.00;;;3.80;;
7074;SDS011;3578;51.568;6.932;2023-03-08T12:04:06;3.90;;;3.63;;
7074;SDS011;3578;51.568;6.932;2023-03-08T12:06:39;3.83;;;3.63;;
7074;SDS011;3578;51.568;6.932;2023-03-08T12:09:11;4.37;;;4.07;;
7074;SDS011;3578;51.568;6.932;2023-03-08T12:11:50;4.20;;;3.87;;
7074;SDS011;3578;51.568;6.932;2023-03-08T12:14:25;3.57;;;3.47;;
7074;SDS011;3578;51.568;6.932;2023-03-08T12:16:58;6.40;;;4.93;;
7074;SDS011;3578;51.568;6.932;2023-03-08T12:19:34;4.47;;;4.27;;
7074;SDS011;3578;51.568;6.932;2023-03-08T12:22:17;4.93;;;4.73;;
7074;SDS011;3578;51.568;6.932;2023-03-08T12:24:56;5.20;;;4.83;;
7074;SDS011;3578;51.568;6.932;2023-03-08T12:27:34;9.63;;;4.83;;
7074;SDS011;3578;51.568;6.932;2023-03-08T12:30:12;6.60;;;4.77;;
7074;SDS011;3578;51.568;6.932;2023-03-08T12:32:48;7.50;;;5.33;;
7074;SDS011;3578;51.568;6.932;2023-03-08T12:35:26;5.37;;;4.97;;
7074;SDS011;3578;51.568;6.932;2023-03-08T12:37:57;9.17;;;5.13;;
7074;SDS011;3578;51.568;6.932;2023-03-08T12:40:33;8.57;;;5.63;;
7074;SDS011;3578;51.568;6.932;2023-03-08T12:43:07;6.60;;;5.90;;
7074;SDS011;3578;51.568;6.932;2023-03-08T12:45:37;5.23;;;4.83;;
7074;SDS011;3578;51.568;6.932;2023-03-08T12:48:13;4.57;;;4.37;;
7074;SDS011;3578;51.568;6.932;2023-03-08T12:51:00;4.87;;;4.37;;
7074;SDS011;3578;51.568;6.932;2023-03-08T12:53:32;4.40;;;4.20;;
7074;SDS011;3578;51.568;6.932;2023-03-08T12:56:18;4.60;;;4.40;;
7074;SDS011;3578;51.568;6.932;2023-03-08T12:58:54;6.00;;;4.10;;
7074;SDS011;3578;51.568;6.932;2023-03-08T13:01:26;4.37;;;4.10;;
7074;SDS011;3578;51.568;6.932;2023-03-08T13:04:00;4.20;;;3.90;;
7074;SDS011;3578;51.568;6.932;2023-03-08T13:09:42;4.17;;;3.77;;
7074;SDS011;3578;51.568;6.932;2023-03-08T13:12:19;4.53;;;4.30;;
7074;SDS011;3578;51.568;6.932;2023-03-08T13:15:20;4.80;;;4.27;;
7074;SDS011;3578;51.568;6.932;2023-03-08T13:17:52;4.90;;;4.60;;
7074;SDS011;3578;51.568;6.932;2023-03-08T13:20:30;5.07;;;4.67;;
7074;SDS011;3578;51.568;6.932;2023-03-08T13:23:18;5.07;;;4.77;;
7074;SDS011;3578;51.568;6.932;2023-03-08T13:25:58;5.23;;;4.80;;
7074;SDS011;3578;51.568;6.932;2023-03-08T13:28:41;5.50;;;5.00;;
7074;SDS011;3578;51.568;6.932;2023-03-08T13:31:12;7.53;;;5.50;;
7074;SDS011;3578;51.568;6.932;2023-03-08T13:33:42;5.77;;;5.23;;
7074;SDS011;3578;51.568;6.932;2023-03-08T13:36:14;9.40;;;4.80;;
7074;SDS011;3578;51.568;6.932;2023-03-08T13:38:53;4.63;;;4.30;;
7074;SDS011;3578;51.568;6.932;2023-03-08T13:41:32;5.30;;;4.73;;
7074;SDS011;3578;51.568;6.932;2023-03-08T13:44:02;5.57;;;5.10;;
7074;SDS011;3578;51.568;6.932;2023-03-08T13:46:33;7.60;;;4.77;;
7074;SDS011;3578;51.568;6.932;2023-03-08T13:49:10;5.03;;;4.63;;
7074;SDS011;3578;51.568;6.932;2023-03-08T13:51:41;6.17;;;5.03;;
7074;SDS011;3578;51.568;6.932;2023-03-08T13:54:11;5.40;;;5.00;;
7074;SDS011;3578;51.568;6.932;2023-03-08T13:56:42;5.87;;;5.40;;
7074;SDS011;3578;51.568;6.932;2023-03-08T13:59:14;6.40;;;4.70;;
7074;SDS011;3578;51.568;6.932;2023-03-08T14:01:46;5.87;;;5.47;;
7074;SDS011;3578;51.568;6.932;2023-03-08T14:04:15;6.10;;;5.10;;
7074;SDS011;3578;51.568;6.932;2023-03-08T14:06:49;10.07;;;5.20;;
7074;SDS011;3578;51.568;6.932;2023-03-08T14:09:18;5.37;;;4.93;;
7074;SDS011;3578;51.568;6.932;2023-03-08T14:11:51;4.70;;;4.40;;
7074;SDS011;3578;51.568;6.932;2023-03-08T14:14:24;5.27;;;4.60;;
7074;SDS011;3578;51.568;6.932;2023-03-08T14:16:57;5.73;;;5.30;;
7074;SDS011;3578;51.568;6.932;2023-03-08T14:19:25;6.63;;;5.17;;
7074;SDS011;3578;51.568;6.932;2023-03-08T14:21:55;6.97;;;5.30;;
7074;SDS011;3578;51.568;6.932;2023-03-08T14:24:25;7.20;;;6.60;;
7074;SDS011;3578;51.568;6.932;2023-03-08T14:26:56;6.40;;;5.90;;
7074;SDS011;3578;51.568;6.932;2023-03-08T14:29:25;7.23;;;6.63;;
7074;SDS011;3578;51.568;6.932;2023-03-08T14:32:03;8.73;;;7.70;;
7074;SDS011;3578;51.568;6.932;2023-03-08T14:34:49;6.87;;;6.17;;
7074;SDS011;3578;51.568;6.932;2023-03-08T14:37:18;6.63;;;6.10;;
7074;SDS011;3578;51.568;6.932;2023-03-08T14:39:49;7.47;;;6.87;;
7074;SDS011;3578;51.568;6.932;2023-03-08T14:42:19;6.90;;;6.30;;
7074;SDS011;3578;51.568;6.932;2023-03-08T14:44:50;7.47;;;6.87;;
7074;SDS011;3578;51.568;6.932;2023-03-08T14:47:22;7.23;;;6.73;;
7074;SDS011;3578;51.568;6.932;2023-03-08T14:49:53;9.10;;;8.17;;
7074;SDS011;3578;51.568;6.932;2023-03-08T14:52:25;7.80;;;6.80;;
7074;SDS011;3578;51.568;6.932;2023-03-08T14:54:54;13.80;;;8.00;;
7074;SDS011;3578;51.568;6.932;2023-03-08T14:57:21;8.67;;;7.80;;
7074;SDS011;3578;51.568;6.932;2023-03-08T14:59:51;8.50;;;7.63;;
7074;SDS011;3578;51.568;6.932;2023-03-08T15:02:20;8.27;;;7.47;;
7074;SDS011;3578;51.568;6.932;2023-03-08T15:04:48;8.67;;;7.80;;
7074;SDS011;3578;51.568;6.932;2023-03-08T15:07:17;8.47;;;7.77;;
7074;SDS011;3578;51.568;6.932;2023-03-08T15:09:47;7.47;;;6.87;;
7074;SDS011;3578;51.568;6.932;2023-03-08T15:12:16;7.70;;;7.10;;
7074;SDS011;3578;51.568;6.932;2023-03-08T15:14:43;10.80;;;8.30;;
7074;SDS011;3578;51.568;6.932;2023-03-08T15:17:10;11.40;;;7.80;;
7074;SDS011;3578;51.568;6.932;2023-03-08T15:19:39;14.07;;;8.70;;
7074;SDS011;3578;51.568;6.932;2023-03-08T15:22:06;8.93;;;8.23;;
7074;SDS011;3578;51.568;6.932;2023-03-08T15:24:33;9.20;;;8.40;;
7074;SDS011;3578;51.568;6.932;2023-03-08T15:26:59;8.10;;;7.50;;
7074;SDS011;3578;51.568;6.932;2023-03-08T15:29:27;8.40;;;7.70;;